• Join FlightAware (Why Join?)
  • Login
  • US Flag 
03:33AM EDT


 

Airport Tracker/Info


-or-


 

Live Flight TrackerFlight Track Log ✈ UAL4625 ✈ 06-May-2013 ✈ CYHZ - KEWR

Flight Track Log - Related Links

Times and Time Zones

All times are in EDT time to prevent confusion due to time zone crossing. See the UAL4625 flight status page for this flight to view local times or setup timezone preferences in your user account.

Time Position Orientation Groundspeed Altitude Reporting Facility
EDT Latitude Longitude Course Direction KTS MPH feet Rate Location/Type
06:37AM 44.8333 -63.5167 180° South 150 173 1,900  Level Moncton Center
06:38AM 44.8333 -63.6000 270° West 190 219 3,700 1,680 Climbing Moncton Center
06:39AM 44.8167 -63.6833 254° West 210 242 5,300 1,800 Climbing Moncton Center
06:40AM 44.8000 -63.7833 257° West 250 288 7,400 2,100 Climbing Moncton Center
06:41AM 44.8000 -63.8833 270° West 270 311 9,500 1,620 Climbing Moncton Center
06:42AM 44.7833 -64.0000 259° West 290 334 10,700 1,080 Climbing Moncton Center
06:43AM 44.7729 -64.3000 180° South  Level FlightAware Approximate
06:43AM 44.7667 -64.1333 260° West 330 380 11,700  Level Moncton Center
06:44AM 44.7500 -64.2833 261° West 340 391 13,400 1,500 Climbing Moncton Center
06:45AM 44.7333 -64.4000 259° West 350 403 14,800 1,260 Climbing Moncton Center
06:46AM 44.7167 -64.5333 260° West 350 403 16,000 1,140 Climbing Moncton Center
06:47AM 44.7000 -64.6833 261° West 360 414 17,100 960 Climbing Moncton Center
06:48AM 44.6833 -64.8167 260° West 360 414 18,000 1,020 Climbing Moncton Center
06:49AM 44.6667 -64.9667 261° West 360 414 19,200 1,200 Climbing Moncton Center
06:50AM 44.6500 -65.1000 260° West 370 426 20,400 1,200 Climbing Moncton Center
06:51AM 44.6333 -65.2500 261° West 370 426 21,700 1,200 Climbing Moncton Center
06:52AM 44.6167 -65.3833 260° West 370 426 22,900 1,140 Climbing Moncton Center
06:53AM 44.6000 -65.5167 260° West 370 426 24,000 1,200 Climbing Moncton Center
06:54AM 44.5833 -65.6667 261° West 370 426 25,300 1,200 Climbing Moncton Center
06:55AM 44.5667 -65.8000 260° West 370 426 26,400 1,200 Climbing Moncton Center
06:56AM 44.5500 -65.9667 262° West 370 426 27,700 1,140 Climbing Moncton Center
06:57AM 44.5333 -66.0833 259° West 360 414 28,700 780 Climbing Moncton Center
06:58AM 44.5000 -66.2500 254° West 370 426 29,300 540 Climbing Moncton Center
06:59AM 44.4833 -66.3833 260° West 380 437 29,800 540 Climbing Moncton Center
07:00AM 44.4667 -66.5500 262° West 400 460 30,400 600 Climbing Moncton Center
07:01AM 44.4500 -66.7000 261° West 410 472 31,100 660 Climbing Moncton Center
07:02AM 44.4333 -66.8500 261° West 410 472 31,800 660 Climbing Moncton Center
07:03AM 44.4000 -67.0167 254° West 420 483 32,500 660 Climbing Moncton Center
07:04AM 44.3667 -67.1833 254° West 430 495 33,200 660 Climbing Moncton Center
07:05AM 44.3500 -67.3500 262° West 430 495 33,900 660 Climbing Moncton Center
07:06AM 44.3469 -67.4486 268° West 433 498 34,300 660 Climbing Boston Center
07:07AM 44.3225 -67.6103 258° West 433 498 35,000 720 Climbing Boston Center
07:08AM 44.2958 -67.7750 257° West 438 504 35,800 480 Climbing Boston Center
07:09AM 44.2711 -67.9367 258° West 438 504 36,000 60 Climbing Boston Center
07:10AM 44.2422 -68.1069 257° West 443 510 36,000  Level Boston Center
07:11AM 44.2133 -68.2831 257° West 454 522 36,000  Level Boston Center
07:12AM 44.1842 -68.4589 257° West 459 528 36,000  Level Boston Center
07:13AM 44.1603 -68.6197 258° West 464 534 36,000  Level Boston Center
07:14AM 44.1286 -68.7983 256° West 470 541 36,000  Level Boston Center
07:15AM 44.0986 -68.9764 257° West 475 547 36,000  Level Boston Center
07:16AM 44.0683 -69.1517 257° West 475 547 36,000  Level Boston Center
07:17AM 44.0378 -69.3267 256° West 475 547 36,000  Level Boston Center
07:18AM 44.0092 -69.5014 257° West 470 541 36,000  Level Boston Center
07:19AM 43.9758 -69.6703 255° West 465 535 36,000  Level Boston Center
07:20AM 43.9447 -69.8536 257° West 458 527 36,000  Level Boston Center
07:21AM 43.9131 -70.0250 256° West 453 521 36,000  Level Boston Center
07:22AM 43.8928 -70.1583 258° West 461 531 36,000  Level Boston Center
07:23AM 43.8508 -70.3672 255° West 461 531 36,000  Level Boston Center
07:24AM 43.8164 -70.5381 254° West 456 525 36,000  Level Boston Center
07:25AM 43.7878 -70.7058 257° West 456 525 36,000  Level Boston Center
07:26AM 43.7547 -70.8678 254° West 451 519 36,000  Level Boston Center
07:27AM 43.7233 -71.0325 255° West 451 519 36,000  Level Boston Center
07:28AM 43.6919 -71.1911 255° West 446 513 36,000  Level Boston Center
07:29AM 43.6644 -71.3553 257° West 440 506 36,000  Level Boston Center
07:30AM 43.6325 -71.5164 255° West 435 501 36,000  Level Boston Center
07:31AM 43.6003 -71.6775 255° West 435 501 36,000  Level Boston Center
07:32AM 43.5681 -71.8411 255° West 435 501 36,000  Level Boston Center
07:33AM 43.5394 -71.9903 255° West 444 511 36,000  Level Boston Center
07:34AM 43.5086 -72.1508 255° West 444 511 36,000  Level Boston Center
07:35AM 43.4736 -72.3114 253° West 444 511 36,000  Level Boston Center
07:36AM 43.4425 -72.4686 255° West 437 503 36,000 -60 Level Boston Center
07:37AM 43.4111 -72.6231 254° West 432 497 35,900 -1,020 Descending Boston Center
07:38AM 43.3794 -72.7800 255° West 432 497 34,000 -1,980 Descending Boston Center
07:39AM 43.3456 -72.9425 254° West 438 504 32,000 -1,980 Descending Boston Center
07:40AM 43.3114 -73.1019 254° West 438 504 30,100 -1,980 Descending Boston Center
07:41AM 43.2747 -73.2642 253° West 438 504 28,100 -2,340 Descending Boston Center
07:42AM 43.2339 -73.4431 253° West 443 510 25,500 -2,580 Descending Boston Center
07:43AM 43.1719 -73.5958 241° Southwest 449 517 23,000 -2,460 Descending Boston Center
07:44AM 43.0647 -73.6706 207° Southwest 437 503 20,600 -2,400 Descending Boston Center
07:45AM 42.9603 -73.7111 196° South 416 479 18,300 -1,980 Descending Boston Center
07:46AM 42.8575 -73.7628 200° South 411 473 16,700 -1,200 Descending Boston Center
07:47AM 42.7506 -73.8058 196° South 406 467 16,000 -360 Descending Boston Center
07:48AM 42.6481 -73.8542 199° South 406 467 16,000  Level Boston Center
07:49AM 42.5286 -73.9022 197° South 412 474 16,000  Level Boston Center
07:50AM 42.4236 -73.9506 199° South 402 463 16,000  Level Boston Center
07:51AM 42.3189 -73.9956 198° South 407 468 16,000  Level Boston Center
07:52AM 42.2139 -74.0436 199° South 402 463 16,000  Level Boston Center
07:53AM 42.1197 -74.0858 198° South 402 463 16,000  Level Boston Center
07:54AM 42.0125 -74.1333 198° South 407 468 16,000  Level Boston Center
07:55AM 41.8972 -74.1833 198° South 407 468 16,000 -900 Level Boston Center
07:56AM 41.8028 -74.2225 197° South 402 463 14,300 -2,160 Descending Boston Center
07:57AM 41.6917 -74.2694 198° South 391 450 11,700 -1,920 Descending Boston Center
07:58AM 41.6139 -74.3061 199° South 357 411 10,500 -1,140 Descending Boston Center
08:00AM 41.4459 -74.3661 196° South  Level FlightAware Approximate
08:01AM 41.3833 -74.4167 180° South 268 308 7,000  Level New York TRACON
08:02AM 41.3167 -74.4333 191° South 261 300 7,000  Level New York TRACON
08:04AM 41.1727 -74.3718 203° Southwest  Level Estimated
08:05AM 41.1000 -74.5167 78° East 255 293 7,000  Level New York TRACON
08:07AM 40.6930 -74.5500 180° South  Level FlightAware Approximate
08:07AM 40.9494 -74.5344 185° South  Level FlightAware Approximate
08:07AM 40.9833 -74.5500 185° South 250 288 6,000  Level New York TRACON
08:08AM 40.9167 -74.5667 191° South 257 296 6,000  Level New York TRACON
08:09AM 40.8500 -74.5500 169° South 254 292 6,000  Level New York TRACON
08:11AM 40.6925 -74.1687 78° East  Level Estimated
08:11AM 40.7672 -74.3489 118° Southeast  Level Estimated
08:11AM 40.7167 -74.5167 118° Southeast 253 291 6,000  Level New York TRACON
08:12AM 40.6500 -74.4833 159° South 253 291 5,100 -660 Descending New York TRACON
08:13AM 40.5833 -74.4500 159° South 254 292 4,800 -1,020 Descending New York TRACON
08:14AM 40.5500 -74.3667 118° Southeast 251 289 3,100 -1,020 Descending New York TRACON
08:15AM 40.5333 -74.3000 108° East 237 273 2,800 -660 Descending New York TRACON
08:17AM 40.6333 -74.2000 37° Northeast 181 208 1,300 -840 Descending New York TRACON
08:18AM 40.6500 -74.1833 37° Northeast 133 153 600 -780 Descending New York TRACON
08:20AM 40.6833 -74.1667 78° East  Level FlightAware Approximate
08:27AM 40.6925 -74.1687 78° East  Level Estimated